Aviation Digital Data Service (ADDS)

Output produced by METARs form (1845 UTC 31 July 2021)
found at http://www.aviationweather.gov/metar/data/
 
METAR text: KFAT 311753Z 13003KT 10SM BKN150 BKN250 32/12 A2999 RMK AO2 SLP152 T03220117 10322 20256 51010 $
Conditions at: KFAT (FRESNO , CA, US) observed 1753 UTC 31 July 2021
Temperature: 32.2°C (90°F)
Dewpoint: 11.7°C (53°F) [RH = 29%]
Pressure (altimeter): 29.99 inches Hg (1015.7 mb)
[Sea-level pressure: 1015.2 mb]
Winds: from the SE (130 degrees) at 3 MPH (3 knots; 1.5 m/s)
Visibility: 10 or more miles (16+ km)
Ceiling: 15000 feet AGL
Clouds: broken clouds at 15000 feet AGL
broken clouds at 25000 feet AGL
Weather:
SOME DATA ABOVE MAY BE INACCURATE!!!
"$" is an indication the sensor requires maintenance

Forecast for: KFAT (FRESNO , CA, US)
Text: KFAT 311720Z 3118/0118 30007KT P6SM SCT200
Forecast period: 1800 UTC 31 July 2021 to 1800 UTC 01 August 2021
Forecast type: FROM: standard forecast or significant change
Winds: from the WNW (300 degrees) at 8 MPH (7 knots; 3.6 m/s)
Visibility: 6 or more miles (10+ km)
Ceiling: at least 12,000 feet AGL
Clouds: scattered clouds at 20000 feet AGL
Weather: no significant weather forecast for this period